sensor_id;sensor_type;location;lat;lon;timestamp;pressure;altitude;pressure_sealevel;temperature;humidity
68329;BME280;55182;56.864;60.554;2024-03-08T00:00:28;76251.34;;;-143.60;81.78
68329;BME280;55182;56.864;60.554;2024-03-08T00:02:54;76253.34;;;-143.60;81.94
68329;BME280;55182;56.864;60.554;2024-03-08T00:05:19;76253.34;;;-143.60;81.75
68329;BME280;55182;56.864;60.554;2024-03-08T00:07:45;76249.34;;;-143.60;81.83
68329;BME280;55182;56.864;60.554;2024-03-08T00:10:11;76239.28;;;-143.60;82.05
68329;BME280;55182;56.864;60.554;2024-03-08T00:12:38;76247.31;;;-143.60;81.83
68329;BME280;55182;56.864;60.554;2024-03-08T00:15:03;76243.31;;;-143.60;81.85
68329;BME280;55182;56.864;60.554;2024-03-08T00:17:29;76235.25;;;-143.60;82.01
68329;BME280;55182;56.864;60.554;2024-03-08T00:19:55;76233.25;;;-143.60;81.98
68329;BME280;55182;56.864;60.554;2024-03-08T00:22:20;76237.28;;;-143.60;82.06
68329;BME280;55182;56.864;60.554;2024-03-08T00:24:45;76229.25;;;-143.60;81.98
68329;BME280;55182;56.864;60.554;2024-03-08T00:27:11;76231.25;;;-143.60;81.88
68329;BME280;55182;56.864;60.554;2024-03-08T00:29:36;76227.22;;;-143.60;81.91
68329;BME280;55182;56.864;60.554;2024-03-08T00:32:02;76225.22;;;-143.60;82.10
68329;BME280;55182;56.864;60.554;2024-03-08T00:34:28;76229.25;;;-143.60;82.33
68329;BME280;55182;56.864;60.554;2024-03-08T00:36:53;76223.22;;;-143.60;82.17
68329;BME280;55182;56.864;60.554;2024-03-08T00:39:19;76219.19;;;-143.60;82.17
68329;BME280;55182;56.864;60.554;2024-03-08T00:41:44;76221.19;;;-143.60;82.28
68329;BME280;55182;56.864;60.554;2024-03-08T00:44:10;76219.19;;;-143.60;82.44
68329;BME280;55182;56.864;60.554;2024-03-08T00:46:35;76219.19;;;-143.60;82.27
68329;BME280;55182;56.864;60.554;2024-03-08T00:49:00;76223.22;;;-143.60;82.35
68329;BME280;55182;56.864;60.554;2024-03-08T00:51:26;76219.19;;;-143.60;82.22
68329;BME280;55182;56.864;60.554;2024-03-08T00:53:51;76213.16;;;-143.60;82.27
68329;BME280;55182;56.864;60.554;2024-03-08T00:56:17;76219.19;;;-143.60;82.34
68329;BME280;55182;56.864;60.554;2024-03-08T00:58:42;76219.19;;;-143.60;82.44
68329;BME280;55182;56.864;60.554;2024-03-08T01:01:08;76219.19;;;-143.60;82.55
68329;BME280;55182;56.864;60.554;2024-03-08T01:03:33;76215.16;;;-143.60;82.58
68329;BME280;55182;56.864;60.554;2024-03-08T01:05:58;76219.19;;;-143.60;82.68
68329;BME280;55182;56.864;60.554;2024-03-08T01:08:24;76213.16;;;-143.60;82.63
68329;BME280;55182;56.864;60.554;2024-03-08T01:10:49;76215.16;;;-143.60;82.68
68329;BME280;55182;56.864;60.554;2024-03-08T01:13:15;76209.13;;;-143.60;82.63
68329;BME280;55182;56.864;60.554;2024-03-08T01:15:40;76211.16;;;-143.60;82.47
68329;BME280;55182;56.864;60.554;2024-03-08T01:18:05;76201.09;;;-143.60;82.31
68329;BME280;55182;56.864;60.554;2024-03-08T01:20:31;76205.13;;;-143.60;82.42
68329;BME280;55182;56.864;60.554;2024-03-08T01:22:56;76201.09;;;-143.60;82.50
68329;BME280;55182;56.864;60.554;2024-03-08T01:25:22;76197.09;;;-143.60;82.45
68329;BME280;55182;56.864;60.554;2024-03-08T01:27:47;76199.09;;;-143.60;82.42
68329;BME280;55182;56.864;60.554;2024-03-08T01:30:13;76191.06;;;-143.60;82.48
68329;BME280;55182;56.864;60.554;2024-03-08T01:32:38;76189.03;;;-143.60;82.45
68329;BME280;55182;56.864;60.554;2024-03-08T01:35:03;76199.09;;;-143.60;82.42
68329;BME280;55182;56.864;60.554;2024-03-08T01:37:29;76191.06;;;-143.60;82.55
68329;BME280;55182;56.864;60.554;2024-03-08T01:39:54;76195.06;;;-143.60;82.52
68329;BME280;55182;56.864;60.554;2024-03-08T01:42:20;76197.09;;;-143.60;82.75
68329;BME280;55182;56.864;60.554;2024-03-08T01:44:45;76199.09;;;-143.60;82.84
68329;BME280;55182;56.864;60.554;2024-03-08T01:47:10;76203.13;;;-143.60;83.11
68329;BME280;55182;56.864;60.554;2024-03-08T01:49:36;76209.13;;;-143.60;83.17
68329;BME280;55182;56.864;60.554;2024-03-08T01:52:02;76207.13;;;-143.60;83.44
68329;BME280;55182;56.864;60.554;2024-03-08T01:54:28;76203.13;;;-143.60;83.77
68329;BME280;55182;56.864;60.554;2024-03-08T01:56:53;76207.13;;;-143.60;83.84
68329;BME280;55182;56.864;60.554;2024-03-08T01:59:19;76211.16;;;-143.60;83.96
68329;BME280;55182;56.864;60.554;2024-03-08T02:01:44;76215.16;;;-143.60;83.97
68329;BME280;55182;56.864;60.554;2024-03-08T02:04:10;76219.19;;;-143.60;84.06
68329;BME280;55182;56.864;60.554;2024-03-08T02:06:35;76225.22;;;-143.60;84.32
68329;BME280;55182;56.864;60.554;2024-03-08T02:09:01;76223.22;;;-143.60;84.17
68329;BME280;55182;56.864;60.554;2024-03-08T02:11:27;76223.22;;;-143.60;84.43
68329;BME280;55182;56.864;60.554;2024-03-08T02:13:52;76227.22;;;-143.60;84.48
68329;BME280;55182;56.864;60.554;2024-03-08T02:16:21;76227.22;;;-143.60;84.64
68329;BME280;55182;56.864;60.554;2024-03-08T02:18:47;76231.25;;;-143.60;84.68
68329;BME280;55182;56.864;60.554;2024-03-08T02:21:12;76227.22;;;-143.60;84.66
68329;BME280;55182;56.864;60.554;2024-03-08T02:23:38;76219.19;;;-143.60;84.48
68329;BME280;55182;56.864;60.554;2024-03-08T02:26:03;76223.22;;;-143.60;84.43
68329;BME280;55182;56.864;60.554;2024-03-08T02:28:29;76223.22;;;-143.60;84.58
68329;BME280;55182;56.864;60.554;2024-03-08T02:30:55;76219.19;;;-143.60;84.38
68329;BME280;55182;56.864;60.554;2024-03-08T02:33:20;76225.22;;;-143.60;84.45
68329;BME280;55182;56.864;60.554;2024-03-08T02:35:46;76227.22;;;-143.60;84.57
68329;BME280;55182;56.864;60.554;2024-03-08T02:38:15;76227.22;;;-143.60;84.65
68329;BME280;55182;56.864;60.554;2024-03-08T02:40:40;76229.25;;;-143.60;84.78
68329;BME280;55182;56.864;60.554;2024-03-08T02:43:06;76229.25;;;-143.60;84.64
68329;BME280;55182;56.864;60.554;2024-03-08T02:45:31;76235.25;;;-143.60;85.00
68329;BME280;55182;56.864;60.554;2024-03-08T02:47:57;76233.25;;;-143.60;84.93
68329;BME280;55182;56.864;60.554;2024-03-08T02:50:22;76231.25;;;-143.60;84.96
68329;BME280;55182;56.864;60.554;2024-03-08T02:52:48;76225.22;;;-143.60;85.05
68329;BME280;55182;56.864;60.554;2024-03-08T02:55:13;76227.22;;;-143.60;85.04
68329;BME280;55182;56.864;60.554;2024-03-08T02:57:39;76227.22;;;-143.60;84.93
68329;BME280;55182;56.864;60.554;2024-03-08T03:00:04;76219.19;;;-143.60;84.83
68329;BME280;55182;56.864;60.554;2024-03-08T03:02:30;76215.16;;;-143.60;84.87
68329;BME280;55182;56.864;60.554;2024-03-08T03:04:55;76205.13;;;-143.60;84.62
68329;BME280;55182;56.864;60.554;2024-03-08T03:07:21;76199.09;;;-143.60;84.31
68329;BME280;55182;56.864;60.554;2024-03-08T03:09:46;76189.03;;;-143.60;84.10
68329;BME280;55182;56.864;60.554;2024-03-08T03:12:12;76185.03;;;-143.60;83.92
68329;BME280;55182;56.864;60.554;2024-03-08T03:14:37;76172.97;;;-143.60;83.56
68329;BME280;55182;56.864;60.554;2024-03-08T03:17:03;76162.91;;;-143.60;83.46
68329;BME280;55182;56.864;60.554;2024-03-08T03:19:28;76156.91;;;-143.60;83.13
68329;BME280;55182;56.864;60.554;2024-03-08T03:21:54;76146.84;;;-143.60;82.73
68329;BME280;55182;56.864;60.554;2024-03-08T03:24:19;76144.84;;;-143.60;82.50
68329;BME280;55182;56.864;60.554;2024-03-08T03:26:45;76132.78;;;-143.60;82.53
68329;BME280;55182;56.864;60.554;2024-03-08T03:29:10;76126.75;;;-143.60;82.27
68329;BME280;55182;56.864;60.554;2024-03-08T03:31:36;76124.75;;;-143.60;82.03
68329;BME280;55182;56.864;60.554;2024-03-08T03:34:01;76110.69;;;-143.60;81.78
68329;BME280;55182;56.864;60.554;2024-03-08T03:36:27;76108.66;;;-143.60;81.77
68329;BME280;55182;56.864;60.554;2024-03-08T03:38:53;76102.63;;;-143.60;81.48
68329;BME280;55182;56.864;60.554;2024-03-08T03:41:18;76094.59;;;-143.60;81.25
68329;BME280;55182;56.864;60.554;2024-03-08T03:43:44;76088.56;;;-143.60;81.20
68329;BME280;55182;56.864;60.554;2024-03-08T03:46:09;76074.50;;;-143.60;80.83
68329;BME280;55182;56.864;60.554;2024-03-08T03:48:35;76066.47;;;-143.60;80.84
68329;BME280;55182;56.864;60.554;2024-03-08T03:51:00;76060.44;;;-143.60;80.52
68329;BME280;55182;56.864;60.554;2024-03-08T03:53:25;76054.41;;;-143.60;80.13
68329;BME280;55182;56.864;60.554;2024-03-08T03:55:51;76046.38;;;-143.60;80.32
68329;BME280;55182;56.864;60.554;2024-03-08T03:58:16;76042.34;;;-143.60;80.12
68329;BME280;55182;56.864;60.554;2024-03-08T04:00:42;76036.31;;;-143.60;79.81
68329;BME280;55182;56.864;60.554;2024-03-08T04:03:07;76034.31;;;-143.60;79.75
68329;BME280;55182;56.864;60.554;2024-03-08T04:05:32;76026.28;;;-143.60;79.72
68329;BME280;55182;56.864;60.554;2024-03-08T04:07:58;76016.22;;;-143.60;79.42
68329;BME280;55182;56.864;60.554;2024-03-08T04:10:23;76014.22;;;-143.60;79.10
68329;BME280;55182;56.864;60.554;2024-03-08T04:12:49;76006.19;;;-143.60;79.40
68329;BME280;55182;56.864;60.554;2024-03-08T04:15:14;75998.16;;;-143.60;79.00
68329;BME280;55182;56.864;60.554;2024-03-08T04:17:40;75986.09;;;-143.60;78.49
68329;BME280;55182;56.864;60.554;2024-03-08T04:20:05;75982.06;;;-143.60;78.28
68329;BME280;55182;56.864;60.554;2024-03-08T04:22:31;75978.06;;;-143.60;78.57
68329;BME280;55182;56.864;60.554;2024-03-08T04:24:56;75974.03;;;-143.60;78.39
68329;BME280;55182;56.864;60.554;2024-03-08T04:27:22;75966.00;;;-143.60;78.16
68329;BME280;55182;56.864;60.554;2024-03-08T04:29:47;75959.97;;;-143.60;77.68
68329;BME280;55182;56.864;60.554;2024-03-08T04:32:13;75945.91;;;-143.60;77.81
68329;BME280;55182;56.864;60.554;2024-03-08T04:34:38;75935.84;;;-143.60;77.30
68329;BME280;55182;56.864;60.554;2024-03-08T04:37:04;75923.81;;;-143.60;77.45
68329;BME280;55182;56.864;60.554;2024-03-08T04:39:29;75913.75;;;-143.60;76.96
68329;BME280;55182;56.864;60.554;2024-03-08T04:41:55;75907.72;;;-143.60;77.02
68329;BME280;55182;56.864;60.554;2024-03-08T04:44:22;75903.72;;;-143.60;77.24
68329;BME280;55182;56.864;60.554;2024-03-08T04:46:48;75897.69;;;-143.60;76.50
68329;BME280;55182;56.864;60.554;2024-03-08T04:49:13;75883.63;;;-143.60;76.17
68329;BME280;55182;56.864;60.554;2024-03-08T04:51:39;75873.56;;;-143.60;75.81
68329;BME280;55182;56.864;60.554;2024-03-08T04:54:05;75861.50;;;-143.60;76.02
68329;BME280;55182;56.864;60.554;2024-03-08T04:56:30;75857.50;;;-143.60;75.71
68329;BME280;55182;56.864;60.554;2024-03-08T04:58:55;75849.44;;;-143.60;75.36
68329;BME280;55182;56.864;60.554;2024-03-08T05:01:21;75837.41;;;-143.60;75.21
68329;BME280;55182;56.864;60.554;2024-03-08T05:03:47;75837.41;;;-143.60;75.21
68329;BME280;55182;56.864;60.554;2024-03-08T05:06:12;75839.41;;;-143.60;75.07
68329;BME280;55182;56.864;60.554;2024-03-08T05:08:38;75837.41;;;-143.60;74.70
68329;BME280;55182;56.864;60.554;2024-03-08T05:11:03;75837.41;;;-143.60;74.72
68329;BME280;55182;56.864;60.554;2024-03-08T05:13:32;75833.38;;;-143.60;75.11
68329;BME280;55182;56.864;60.554;2024-03-08T05:15:57;75833.38;;;-143.60;74.96
68329;BME280;55182;56.864;60.554;2024-03-08T05:18:23;75843.44;;;-143.60;74.75
68329;BME280;55182;56.864;60.554;2024-03-08T05:20:48;75849.44;;;-143.60;74.90
68329;BME280;55182;56.864;60.554;2024-03-08T05:23:14;75853.47;;;-143.60;75.00
68329;BME280;55182;56.864;60.554;2024-03-08T05:25:39;75849.44;;;-143.60;75.56
68329;BME280;55182;56.864;60.554;2024-03-08T05:28:05;75841.41;;;-143.60;75.54
68329;BME280;55182;56.864;60.554;2024-03-08T05:30:30;75821.31;;;-143.60;75.68
68329;BME280;55182;56.864;60.554;2024-03-08T05:32:56;75801.22;;;-143.60;74.95
68329;BME280;55182;56.864;60.554;2024-03-08T05:35:21;75791.19;;;-143.60;74.52
68329;BME280;55182;56.864;60.554;2024-03-08T05:37:46;75783.16;;;-143.60;73.98
68329;BME280;55182;56.864;60.554;2024-03-08T05:40:12;75775.09;;;-143.60;73.25
68329;BME280;55182;56.864;60.554;2024-03-08T05:42:37;75773.09;;;-143.60;73.29
68329;BME280;55182;56.864;60.554;2024-03-08T05:45:06;75777.13;;;-143.60;73.20
68329;BME280;55182;56.864;60.554;2024-03-08T05:47:32;75777.13;;;-143.60;73.65
68329;BME280;55182;56.864;60.554;2024-03-08T05:49:57;75769.09;;;-143.60;73.66
68329;BME280;55182;56.864;60.554;2024-03-08T05:52:22;75757.03;;;-143.60;73.67
68329;BME280;55182;56.864;60.554;2024-03-08T05:54:48;75753.00;;;-143.60;72.78
68329;BME280;55182;56.864;60.554;2024-03-08T05:57:13;75744.97;;;-143.60;72.59
68329;BME280;55182;56.864;60.554;2024-03-08T05:59:39;75736.94;;;-143.60;72.58
68329;BME280;55182;56.864;60.554;2024-03-08T06:02:04;75736.94;;;-143.60;72.18
68329;BME280;55182;56.864;60.554;2024-03-08T06:04:30;75730.91;;;-143.60;72.24
68329;BME280;55182;56.864;60.554;2024-03-08T06:06:55;75716.84;;;-143.60;71.82
68329;BME280;55182;56.864;60.554;2024-03-08T06:09:21;75706.78;;;-143.60;71.58
68329;BME280;55182;56.864;60.554;2024-03-08T06:11:46;75700.75;;;-143.60;71.95
68329;BME280;55182;56.864;60.554;2024-03-08T06:14:12;75686.69;;;-143.60;71.61
68329;BME280;55182;56.864;60.554;2024-03-08T06:16:37;75672.63;;;-143.60;71.14
68329;BME280;55182;56.864;60.554;2024-03-08T06:19:03;75660.59;;;-143.60;70.85
68329;BME280;55182;56.864;60.554;2024-03-08T06:21:28;75644.50;;;-143.60;71.13
68329;BME280;55182;56.864;60.554;2024-03-08T06:23:54;75636.47;;;-143.60;70.40
68329;BME280;55182;56.864;60.554;2024-03-08T06:26:20;75624.41;;;-143.60;70.89
68329;BME280;55182;56.864;60.554;2024-03-08T06:28:45;75616.38;;;-143.60;70.54
68329;BME280;55182;56.864;60.554;2024-03-08T06:31:11;75602.31;;;-143.60;69.98
68329;BME280;55182;56.864;60.554;2024-03-08T06:33:36;75602.31;;;-143.60;69.97
68329;BME280;55182;56.864;60.554;2024-03-08T06:36:02;75592.25;;;-143.60;69.37
68329;BME280;55182;56.864;60.554;2024-03-08T06:38:27;75596.28;;;-143.60;69.57
68329;BME280;55182;56.864;60.554;2024-03-08T06:40:53;75596.28;;;-143.60;69.59
68329;BME280;55182;56.864;60.554;2024-03-08T06:43:18;75592.25;;;-143.60;69.30
68329;BME280;55182;56.864;60.554;2024-03-08T06:45:44;75588.25;;;-143.60;69.89
68329;BME280;55182;56.864;60.554;2024-03-08T06:48:24;75580.22;;;-143.60;69.54
68329;BME280;55182;56.864;60.554;2024-03-08T06:50:49;75564.13;;;-143.60;69.80
68329;BME280;55182;56.864;60.554;2024-03-08T06:53:15;75562.13;;;-143.60;68.84
68329;BME280;55182;56.864;60.554;2024-03-08T06:55:40;75556.09;;;-143.60;68.80
68329;BME280;55182;56.864;60.554;2024-03-08T06:58:05;75556.09;;;-143.60;68.64
68329;BME280;55182;56.864;60.554;2024-03-08T07:00:31;75552.09;;;-143.60;68.92
68329;BME280;55182;56.864;60.554;2024-03-08T07:02:56;75527.97;;;-143.60;68.99
68329;BME280;55182;56.864;60.554;2024-03-08T07:05:22;75527.97;;;-143.60;67.91
68329;BME280;55182;56.864;60.554;2024-03-08T07:07:47;75540.03;;;-143.60;68.10
68329;BME280;55182;56.864;60.554;2024-03-08T07:10:13;75529.97;;;-143.60;69.21
68329;BME280;55182;56.864;60.554;2024-03-08T07:12:38;75532.00;;;-143.60;68.57
68329;BME280;55182;56.864;60.554;2024-03-08T07:15:05;75536.00;;;-143.60;69.04
68329;BME280;55182;56.864;60.554;2024-03-08T07:17:31;75523.94;;;-143.60;69.05
68329;BME280;55182;56.864;60.554;2024-03-08T07:19:56;75509.88;;;-143.60;69.35
68329;BME280;55182;56.864;60.554;2024-03-08T07:22:22;75491.81;;;-143.60;68.83
68329;BME280;55182;56.864;60.554;2024-03-08T07:24:47;75475.72;;;-143.60;68.25
68329;BME280;55182;56.864;60.554;2024-03-08T07:27:12;75457.66;;;-143.60;67.65
68329;BME280;55182;56.864;60.554;2024-03-08T07:29:38;75443.59;;;-143.60;67.18
68329;BME280;55182;56.864;60.554;2024-03-08T07:32:03;75431.53;;;-143.60;66.70
68329;BME280;55182;56.864;60.554;2024-03-08T07:34:29;75411.44;;;-143.60;66.39
68329;BME280;55182;56.864;60.554;2024-03-08T07:36:54;75403.41;;;-143.60;66.43
68329;BME280;55182;56.864;60.554;2024-03-08T07:39:20;75405.41;;;-143.60;66.82
68329;BME280;55182;56.864;60.554;2024-03-08T07:41:45;75379.28;;;-143.60;66.17
68329;BME280;55182;56.864;60.554;2024-03-08T07:44:10;75371.25;;;-143.60;65.42
68329;BME280;55182;56.864;60.554;2024-03-08T07:46:36;75381.31;;;-143.60;66.27
68329;BME280;55182;56.864;60.554;2024-03-08T07:49:01;75371.25;;;-143.60;65.69
68329;BME280;55182;56.864;60.554;2024-03-08T07:51:27;75371.25;;;-143.60;65.76
68329;BME280;55182;56.864;60.554;2024-03-08T07:53:52;75367.25;;;-143.60;66.13
68329;BME280;55182;56.864;60.554;2024-03-08T07:56:18;75351.16;;;-143.60;66.10
68329;BME280;55182;56.864;60.554;2024-03-08T07:58:43;75353.19;;;-143.60;65.65
68329;BME280;55182;56.864;60.554;2024-03-08T08:01:15;75351.16;;;-143.60;65.82
68329;BME280;55182;56.864;60.554;2024-03-08T08:03:41;75351.16;;;-143.60;65.63
68329;BME280;55182;56.864;60.554;2024-03-08T08:06:06;75351.16;;;-143.60;65.81
68329;BME280;55182;56.864;60.554;2024-03-08T08:08:32;75353.19;;;-143.60;65.34
68329;BME280;55182;56.864;60.554;2024-03-08T08:10:57;75351.16;;;-143.60;66.05
68329;BME280;55182;56.864;60.554;2024-03-08T08:13:23;75343.13;;;-143.60;66.79
68329;BME280;55182;56.864;60.554;2024-03-08T08:15:48;75327.06;;;-143.60;65.37
68329;BME280;55182;56.864;60.554;2024-03-08T08:18:13;75321.03;;;-143.60;66.65
68329;BME280;55182;56.864;60.554;2024-03-08T08:20:39;75308.97;;;-143.60;66.58
68329;BME280;55182;56.864;60.554;2024-03-08T08:23:04;75290.91;;;-143.60;65.65
68329;BME280;55182;56.864;60.554;2024-03-08T08:25:30;75276.84;;;-143.60;65.31
68329;BME280;55182;56.864;60.554;2024-03-08T08:27:55;75274.81;;;-143.60;65.13
68329;BME280;55182;56.864;60.554;2024-03-08T08:30:21;75266.78;;;-143.60;64.72
68329;BME280;55182;56.864;60.554;2024-03-08T08:32:46;75270.81;;;-143.60;64.72
68329;BME280;55182;56.864;60.554;2024-03-08T08:35:12;75282.88;;;-143.60;64.44
68329;BME280;55182;56.864;60.554;2024-03-08T08:37:40;75286.88;;;-143.60;65.29
68329;BME280;55182;56.864;60.554;2024-03-08T08:40:06;75292.91;;;-143.60;66.36
68329;BME280;55182;56.864;60.554;2024-03-08T08:42:32;75296.94;;;-143.60;65.57
68329;BME280;55182;56.864;60.554;2024-03-08T08:44:57;75294.91;;;-143.60;65.35
68329;BME280;55182;56.864;60.554;2024-03-08T08:47:23;75296.94;;;-143.60;65.16
68329;BME280;55182;56.864;60.554;2024-03-08T08:49:48;75292.91;;;-143.60;65.17
68329;BME280;55182;56.864;60.554;2024-03-08T08:52:14;75288.88;;;-143.60;65.29
68329;BME280;55182;56.864;60.554;2024-03-08T08:54:39;75284.88;;;-143.60;64.23
68329;BME280;55182;56.864;60.554;2024-03-08T08:57:04;75290.91;;;-143.60;64.46
68329;BME280;55182;56.864;60.554;2024-03-08T08:59:30;75308.97;;;-143.60;64.43
68329;BME280;55182;56.864;60.554;2024-03-08T09:01:55;75323.03;;;-143.60;64.32
68329;BME280;55182;56.864;60.554;2024-03-08T09:04:21;75339.13;;;-143.60;64.57
68329;BME280;55182;56.864;60.554;2024-03-08T09:06:46;75347.16;;;-143.60;65.63
68329;BME280;55182;56.864;60.554;2024-03-08T09:09:12;75337.09;;;-143.60;65.99
68329;BME280;55182;56.864;60.554;2024-03-08T09:11:37;75331.06;;;-143.60;66.42
68329;BME280;55182;56.864;60.554;2024-03-08T09:14:03;75315.00;;;-143.60;65.32
68329;BME280;55182;56.864;60.554;2024-03-08T09:16:28;75298.94;;;-143.60;65.94
68329;BME280;55182;56.864;60.554;2024-03-08T09:18:54;75298.94;;;-143.60;65.15
68329;BME280;55182;56.864;60.554;2024-03-08T09:21:19;75290.91;;;-143.60;64.70
68329;BME280;55182;56.864;60.554;2024-03-08T09:23:45;75302.94;;;-143.60;64.80
68329;BME280;55182;56.864;60.554;2024-03-08T09:26:10;75308.97;;;-143.60;63.26
68329;BME280;55182;56.864;60.554;2024-03-08T09:28:36;75333.09;;;-143.60;64.87
68329;BME280;55182;56.864;60.554;2024-03-08T09:31:01;75329.06;;;-143.60;64.61
68329;BME280;55182;56.864;60.554;2024-03-08T09:33:26;75335.09;;;-143.60;63.56
68329;BME280;55182;56.864;60.554;2024-03-08T09:35:52;75323.03;;;-143.60;65.73
68329;BME280;55182;56.864;60.554;2024-03-08T09:38:17;75319.03;;;-143.60;63.76
68329;BME280;55182;56.864;60.554;2024-03-08T09:40:43;75319.03;;;-143.60;63.20
68329;BME280;55182;56.864;60.554;2024-03-08T09:43:12;75323.03;;;-143.60;62.94
68329;BME280;55182;56.864;60.554;2024-03-08T09:45:38;75331.06;;;-143.60;64.04
68329;BME280;55182;56.864;60.554;2024-03-08T09:48:05;75331.06;;;-143.60;63.41
68329;BME280;55182;56.864;60.554;2024-03-08T09:50:31;75319.03;;;-143.60;63.68
68329;BME280;55182;56.864;60.554;2024-03-08T09:52:57;75304.97;;;-143.60;62.93
68329;BME280;55182;56.864;60.554;2024-03-08T09:55:23;75311.00;;;-143.60;64.71
68329;BME280;55182;56.864;60.554;2024-03-08T09:57:49;75302.94;;;-143.60;64.35
68329;BME280;55182;56.864;60.554;2024-03-08T10:00:14;75311.00;;;-143.60;63.91
68329;BME280;55182;56.864;60.554;2024-03-08T10:02:40;75300.94;;;-143.60;63.06
68329;BME280;55182;56.864;60.554;2024-03-08T10:05:05;75294.91;;;-143.60;62.88
68329;BME280;55182;56.864;60.554;2024-03-08T10:07:32;75298.94;;;-143.60;62.54
68329;BME280;55182;56.864;60.554;2024-03-08T10:09:57;75292.91;;;-143.60;62.91
68329;BME280;55182;56.864;60.554;2024-03-08T10:12:23;75276.84;;;-143.60;63.96
68329;BME280;55182;56.864;60.554;2024-03-08T10:14:49;75282.88;;;-143.60;62.17
68329;BME280;55182;56.864;60.554;2024-03-08T10:17:14;75282.88;;;-143.60;62.23
68329;BME280;55182;56.864;60.554;2024-03-08T10:19:49;75282.88;;;-143.60;61.67
68329;BME280;55182;56.864;60.554;2024-03-08T10:22:15;75272.81;;;-143.60;62.43
68329;BME280;55182;56.864;60.554;2024-03-08T10:24:40;75276.84;;;-143.60;62.42
68329;BME280;55182;56.864;60.554;2024-03-08T10:27:06;75276.84;;;-143.60;62.66
68329;BME280;55182;56.864;60.554;2024-03-08T10:29:31;75286.88;;;-143.60;62.06
68329;BME280;55182;56.864;60.554;2024-03-08T10:31:57;75308.97;;;-143.60;62.43
68329;BME280;55182;56.864;60.554;2024-03-08T10:34:23;75341.13;;;-143.60;62.14
68329;BME280;55182;56.864;60.554;2024-03-08T10:36:49;75339.13;;;-143.60;63.11
68329;BME280;55182;56.864;60.554;2024-03-08T10:39:24;75363.22;;;-143.60;63.32
68329;BME280;55182;56.864;60.554;2024-03-08T10:42:08;75367.25;;;-143.60;64.17
68329;BME280;55182;56.864;60.554;2024-03-08T10:47:33;75331.06;;;-143.60;66.55
68329;BME280;55182;56.864;60.554;2024-03-08T10:50:15;75317.00;;;-143.60;64.72
68329;BME280;55182;56.864;60.554;2024-03-08T10:52:43;75315.00;;;-143.60;64.42
68329;BME280;55182;56.864;60.554;2024-03-08T10:55:08;75311.00;;;-143.60;63.74
68329;BME280;55182;56.864;60.554;2024-03-08T10:57:35;75308.97;;;-143.60;63.65
68329;BME280;55182;56.864;60.554;2024-03-08T11:00:02;75313.00;;;-143.60;63.45
68329;BME280;55182;56.864;60.554;2024-03-08T11:02:27;75306.97;;;-143.60;64.17
68329;BME280;55182;56.864;60.554;2024-03-08T11:04:53;75306.97;;;-143.60;64.39
68329;BME280;55182;56.864;60.554;2024-03-08T11:07:19;75304.97;;;-143.60;63.23
68329;BME280;55182;56.864;60.554;2024-03-08T11:09:45;75302.94;;;-143.60;62.47
68329;BME280;55182;56.864;60.554;2024-03-08T11:12:28;75313.00;;;-143.60;62.94
68329;BME280;55182;56.864;60.554;2024-03-08T11:14:54;75335.09;;;-143.60;62.55
68329;BME280;55182;56.864;60.554;2024-03-08T11:19:48;75367.25;;;-143.60;63.07
68329;BME280;55182;56.864;60.554;2024-03-08T11:22:20;75367.25;;;-143.60;63.46
68329;BME280;55182;56.864;60.554;2024-03-08T11:24:45;75369.25;;;-143.60;63.65
68329;BME280;55182;56.864;60.554;2024-03-08T11:27:11;75351.16;;;-143.60;63.89
68329;BME280;55182;56.864;60.554;2024-03-08T11:29:36;75337.09;;;-143.60;63.87
68329;BME280;55182;56.864;60.554;2024-03-08T11:32:09;75333.09;;;-143.60;63.43
68329;BME280;55182;56.864;60.554;2024-03-08T11:34:35;75323.03;;;-143.60;64.48
68329;BME280;55182;56.864;60.554;2024-03-08T11:37:01;75306.97;;;-143.60;63.57
68329;BME280;55182;56.864;60.554;2024-03-08T11:39:28;75286.88;;;-143.60;62.94
68329;BME280;55182;56.864;60.554;2024-03-08T11:41:55;75282.88;;;-143.60;61.57
68329;BME280;55182;56.864;60.554;2024-03-08T11:44:20;75278.84;;;-143.60;63.04
68329;BME280;55182;56.864;60.554;2024-03-08T11:46:45;75284.88;;;-143.60;60.77
68329;BME280;55182;56.864;60.554;2024-03-08T11:49:11;75292.91;;;-143.60;61.34
68329;BME280;55182;56.864;60.554;2024-03-08T11:51:36;75280.84;;;-143.60;61.81
68329;BME280;55182;56.864;60.554;2024-03-08T11:54:02;75278.84;;;-143.60;60.92
68329;BME280;55182;56.864;60.554;2024-03-08T11:56:27;75294.91;;;-143.60;60.61
68329;BME280;55182;56.864;60.554;2024-03-08T11:58:54;75302.94;;;-143.60;61.27
68329;BME280;55182;56.864;60.554;2024-03-08T12:01:20;75298.94;;;-143.60;61.48
68329;BME280;55182;56.864;60.554;2024-03-08T12:03:45;75288.88;;;-143.60;61.81
68329;BME280;55182;56.864;60.554;2024-03-08T12:06:17;75276.84;;;-143.60;62.97
68329;BME280;55182;56.864;60.554;2024-03-08T12:08:43;75264.78;;;-143.60;61.14
68329;BME280;55182;56.864;60.554;2024-03-08T12:11:08;75274.81;;;-143.60;61.81
68329;BME280;55182;56.864;60.554;2024-03-08T12:13:34;75276.84;;;-143.60;64.24
68329;BME280;55182;56.864;60.554;2024-03-08T12:16:01;75282.88;;;-143.60;62.18
68329;BME280;55182;56.864;60.554;2024-03-08T12:18:27;75276.84;;;-143.60;61.27
68329;BME280;55182;56.864;60.554;2024-03-08T12:21:03;75276.84;;;-143.60;61.07
68329;BME280;55182;56.864;60.554;2024-03-08T12:23:28;75282.88;;;-143.60;61.66
68329;BME280;55182;56.864;60.554;2024-03-08T12:25:54;75304.97;;;-143.60;61.17
68329;BME280;55182;56.864;60.554;2024-03-08T12:28:19;75319.03;;;-143.60;61.92